createdAt,value
2017-09-02T00:00:38.274Z,5.77
2017-09-02T00:03:05.735Z,5.83
2017-09-02T00:05:33.198Z,5.97
2017-09-02T00:08:01.424Z,6.17
2017-09-02T00:10:28.881Z,6.00
2017-09-02T00:12:56.325Z,5.10
2017-09-02T00:15:23.795Z,6.03
2017-09-02T00:17:51.266Z,5.10
2017-09-02T00:20:18.727Z,5.10
2017-09-02T00:22:46.174Z,5.93
2017-09-02T00:25:13.630Z,5.37
2017-09-02T00:27:41.121Z,5.10
2017-09-02T00:30:08.583Z,5.43
2017-09-02T00:32:36.029Z,5.20
2017-09-02T00:35:03.512Z,5.40
2017-09-02T00:37:30.970Z,4.30
2017-09-02T00:39:58.430Z,5.37
2017-09-02T00:42:25.887Z,5.03
2017-09-02T00:44:53.342Z,4.47
2017-09-02T00:47:20.786Z,4.73
2017-09-02T00:49:49.031Z,4.70
2017-09-02T00:52:16.496Z,4.40
2017-09-02T00:54:43.930Z,4.30
2017-09-02T00:57:11.389Z,4.60
2017-09-02T00:59:38.869Z,4.70
2017-09-02T01:02:06.346Z,4.60
2017-09-02T01:04:33.805Z,4.67
2017-09-02T01:07:01.285Z,4.50
2017-09-02T01:09:28.730Z,4.87
2017-09-02T01:11:56.192Z,4.27
2017-09-02T01:14:23.671Z,3.87
2017-09-02T01:16:51.131Z,4.30
2017-09-02T01:19:18.602Z,3.83
2017-09-02T01:21:46.058Z,3.80
2017-09-02T01:24:13.510Z,4.13
2017-09-02T01:26:40.977Z,4.20
2017-09-02T01:29:08.425Z,3.73
2017-09-02T01:31:35.886Z,3.63
2017-09-02T01:34:03.338Z,3.60
2017-09-02T01:36:30.786Z,4.00
2017-09-02T01:38:58.254Z,4.53
2017-09-02T01:41:25.737Z,3.50
2017-09-02T01:43:53.181Z,3.57
2017-09-02T01:46:20.670Z,3.23
2017-09-02T01:48:48.122Z,3.53
2017-09-02T01:51:15.666Z,3.50
2017-09-02T01:53:43.146Z,3.13
2017-09-02T01:56:10.606Z,3.57
2017-09-02T01:58:38.069Z,3.43
2017-09-02T02:01:05.547Z,3.57
2017-09-02T02:03:33.002Z,3.20
2017-09-02T02:06:00.445Z,3.40
2017-09-02T02:08:27.899Z,3.90
2017-09-02T02:10:55.348Z,3.50
2017-09-02T02:13:22.827Z,3.10
2017-09-02T02:15:50.278Z,3.40
2017-09-02T02:18:18.506Z,3.80
2017-09-02T02:20:46.723Z,2.93
2017-09-02T02:23:14.951Z,3.37
2017-09-02T02:25:42.407Z,3.10
2017-09-02T02:28:09.858Z,3.20
2017-09-02T02:30:37.319Z,3.00
2017-09-02T02:33:04.774Z,2.80
2017-09-02T02:35:32.242Z,3.30
2017-09-02T02:37:59.691Z,2.77
2017-09-02T02:40:27.137Z,3.00
2017-09-02T02:42:54.594Z,3.13
2017-09-02T02:45:22.062Z,2.67
2017-09-02T02:47:49.509Z,2.87
2017-09-02T02:50:16.986Z,2.63
2017-09-02T02:52:44.458Z,2.80
2017-09-02T02:55:11.945Z,3.03
2017-09-02T02:57:39.395Z,3.20
2017-09-02T03:00:06.875Z,2.80
2017-09-02T03:05:08.202Z,2.63
2017-09-02T03:07:35.675Z,3.00
2017-09-02T03:10:03.116Z,2.80
2017-09-02T03:12:30.561Z,2.57
2017-09-02T03:14:58.006Z,3.23
2017-09-02T03:17:25.462Z,2.43
2017-09-02T03:19:52.918Z,2.87
2017-09-02T03:22:20.368Z,2.40
2017-09-02T03:24:47.822Z,2.30
2017-09-02T03:27:15.274Z,2.53
2017-09-02T03:29:42.754Z,2.33
2017-09-02T03:32:10.217Z,2.30
2017-09-02T03:34:37.665Z,2.67
2017-09-02T03:37:05.122Z,2.33
2017-09-02T03:39:32.621Z,2.30
2017-09-02T03:42:00.078Z,2.40
2017-09-02T03:44:27.531Z,2.50
2017-09-02T03:46:55.754Z,2.23
2017-09-02T03:49:23.240Z,2.43
2017-09-02T03:51:50.681Z,2.47
2017-09-02T03:54:18.145Z,2.20
2017-09-02T03:56:45.617Z,2.13
2017-09-02T03:59:13.085Z,2.20
2017-09-02T04:01:40.541Z,2.20
2017-09-02T04:04:08.013Z,2.30
2017-09-02T04:06:35.458Z,2.40
2017-09-02T04:09:02.928Z,2.20
2017-09-02T04:11:30.371Z,2.30
2017-09-02T04:13:57.827Z,2.37
2017-09-02T04:16:25.290Z,1.97
2017-09-02T04:18:52.775Z,2.13
2017-09-02T04:21:20.240Z,1.90
2017-09-02T04:23:47.682Z,2.20
2017-09-02T04:26:15.136Z,2.20
2017-09-02T04:28:43.363Z,2.00
2017-09-02T04:31:10.828Z,2.10
2017-09-02T04:33:38.275Z,2.10
2017-09-02T04:36:05.741Z,2.10
2017-09-02T04:38:33.192Z,1.87
2017-09-02T04:41:00.681Z,1.80
2017-09-02T04:43:28.914Z,1.87
2017-09-02T04:45:56.374Z,2.10
2017-09-02T04:48:23.826Z,1.97
2017-09-02T04:50:51.282Z,1.63
2017-09-02T04:53:18.746Z,2.20
2017-09-02T04:55:46.226Z,1.90
2017-09-02T04:58:13.682Z,1.80
2017-09-02T05:00:41.126Z,1.90
2017-09-02T05:03:08.588Z,2.07
2017-09-02T05:05:36.030Z,2.00
2017-09-02T05:08:03.510Z,2.03
2017-09-02T05:10:30.959Z,1.80
2017-09-02T05:12:58.419Z,1.60
2017-09-02T05:15:25.872Z,1.80
2017-09-02T05:17:53.350Z,1.87
2017-09-02T05:20:20.790Z,1.63
2017-09-02T05:22:48.278Z,1.83
2017-09-02T05:25:15.725Z,1.80
2017-09-02T05:27:43.177Z,1.73
2017-09-02T05:30:10.659Z,1.73
2017-09-02T05:32:38.126Z,2.00
2017-09-02T05:35:05.583Z,1.77
2017-09-02T05:37:33.026Z,1.80
2017-09-02T05:40:00.477Z,1.43
2017-09-02T05:42:28.694Z,1.93
2017-09-02T05:44:56.153Z,2.10
2017-09-02T05:47:23.612Z,1.83
2017-09-02T05:49:51.084Z,1.70
2017-09-02T05:52:18.523Z,1.73
2017-09-02T05:54:45.982Z,1.80
2017-09-02T05:57:13.432Z,1.77
2017-09-02T05:59:40.923Z,2.00
2017-09-02T06:02:08.370Z,1.90
2017-09-02T06:04:35.849Z,2.17
2017-09-02T06:07:03.305Z,1.87
2017-09-02T06:09:30.808Z,1.80
2017-09-02T06:11:58.265Z,2.07
2017-09-02T06:14:25.711Z,2.20
2017-09-02T06:16:53.163Z,1.90
2017-09-02T06:19:20.618Z,1.70
2017-09-02T06:21:48.146Z,1.87
2017-09-02T06:24:15.605Z,2.00
2017-09-02T06:26:43.077Z,2.00
2017-09-02T06:29:10.534Z,1.90
2017-09-02T06:31:38.006Z,1.70
2017-09-02T06:34:05.462Z,1.93
2017-09-02T06:36:32.930Z,2.10
2017-09-02T06:39:00.390Z,2.10
2017-09-02T06:41:27.851Z,2.00
2017-09-02T06:43:55.384Z,2.10
2017-09-02T06:46:22.843Z,2.00
2017-09-02T06:48:50.319Z,2.10
2017-09-02T06:51:17.773Z,1.90
2017-09-02T06:53:45.215Z,1.90
2017-09-02T06:56:12.691Z,1.80
2017-09-02T06:58:40.154Z,1.80
2017-09-02T07:01:07.605Z,2.20
2017-09-02T07:03:35.238Z,1.93
2017-09-02T07:06:02.734Z,1.97
2017-09-02T07:08:30.194Z,1.87
2017-09-02T07:10:57.699Z,2.40
2017-09-02T07:13:25.172Z,1.90
2017-09-02T07:15:52.639Z,2.03
2017-09-02T07:18:20.093Z,2.43
2017-09-02T07:20:47.573Z,1.70
2017-09-02T07:23:15.022Z,1.83
2017-09-02T07:25:43.258Z,2.03
2017-09-02T07:28:10.727Z,1.90
2017-09-02T07:30:38.214Z,2.00
2017-09-02T07:33:05.659Z,2.03
2017-09-02T07:35:33.110Z,2.17
2017-09-02T07:38:00.562Z,2.03
2017-09-02T07:40:28.013Z,1.70
2017-09-02T07:42:55.474Z,1.70
2017-09-02T07:45:22.934Z,1.73
2017-09-02T07:47:50.421Z,1.93
2017-09-02T07:50:17.910Z,1.77
2017-09-02T07:52:45.370Z,1.80
2017-09-02T07:55:12.829Z,2.10
2017-09-02T07:57:40.323Z,2.03
2017-09-02T08:00:07.795Z,1.83
2017-09-02T08:02:35.256Z,1.53
2017-09-02T08:05:02.737Z,2.20
2017-09-02T08:07:30.191Z,1.67
2017-09-02T08:09:57.646Z,1.63
2017-09-02T08:12:25.126Z,1.60
2017-09-02T08:14:52.594Z,1.70
2017-09-02T08:17:20.051Z,1.80
2017-09-02T08:19:47.526Z,2.27
2017-09-02T08:22:14.998Z,2.10
2017-09-02T08:24:42.465Z,2.07
2017-09-02T08:27:09.933Z,1.63
2017-09-02T08:29:37.398Z,2.07
2017-09-02T08:32:04.873Z,2.00
2017-09-02T08:34:32.337Z,2.00
2017-09-02T08:36:59.824Z,1.90
2017-09-02T08:39:27.279Z,1.70
2017-09-02T08:41:54.766Z,2.13
2017-09-02T08:44:22.226Z,2.80
2017-09-02T08:46:50.473Z,2.47
2017-09-02T08:49:17.955Z,2.60
2017-09-02T08:51:45.407Z,2.20
2017-09-02T08:54:12.870Z,2.37
2017-09-02T08:56:40.346Z,1.83
2017-09-02T08:59:07.802Z,2.03
2017-09-02T09:01:35.260Z,2.07
2017-09-02T09:04:02.856Z,2.07
2017-09-02T09:06:30.378Z,1.97
2017-09-02T09:08:57.874Z,1.83
2017-09-02T09:11:25.347Z,1.47
2017-09-02T09:13:52.797Z,2.03
2017-09-02T09:16:20.285Z,2.20
2017-09-02T09:18:47.742Z,2.20
2017-09-02T09:21:15.219Z,2.07
2017-09-02T09:23:42.664Z,1.90
2017-09-02T09:26:10.128Z,2.30
2017-09-02T09:28:37.593Z,1.70
2017-09-02T09:31:05.073Z,1.80
2017-09-02T09:33:32.515Z,1.83
2017-09-02T09:35:59.974Z,2.27
2017-09-02T09:38:27.433Z,1.90
2017-09-02T09:40:54.900Z,1.80
2017-09-02T09:43:22.353Z,1.80
2017-09-02T09:45:49.854Z,1.80
2017-09-02T09:48:17.310Z,2.23
2017-09-02T09:50:44.765Z,2.13
2017-09-02T09:53:12.268Z,1.93
2017-09-02T09:55:40.487Z,1.90
2017-09-02T09:58:08.014Z,1.50
2017-09-02T10:00:35.462Z,1.80
2017-09-02T10:03:02.922Z,2.00
2017-09-02T10:05:30.361Z,1.67
2017-09-02T10:07:57.834Z,1.80
2017-09-02T10:10:25.353Z,1.63
2017-09-02T10:12:52.938Z,1.60
2017-09-02T10:15:21.185Z,2.33
2017-09-02T10:17:48.681Z,1.60
2017-09-02T10:20:16.898Z,1.80
2017-09-02T10:22:44.414Z,1.70
2017-09-02T10:25:11.959Z,1.80
2017-09-02T10:27:39.413Z,1.80
2017-09-02T10:30:06.873Z,1.67
2017-09-02T10:32:34.322Z,2.07
2017-09-02T10:35:01.785Z,1.67
2017-09-02T10:37:29.230Z,1.73
2017-09-02T10:39:56.702Z,1.80
2017-09-02T10:42:24.173Z,1.80
2017-09-02T11:18:28.053Z,1.90
2017-09-02T11:20:56.421Z,1.70
2017-09-02T11:23:27.786Z,2.00
2017-09-02T11:25:56.053Z,1.77
2017-09-02T11:28:23.770Z,1.73
2017-09-02T11:30:51.213Z,2.03
2017-09-02T11:33:18.681Z,2.10
2017-09-02T11:35:46.138Z,1.57
2017-09-02T11:38:13.594Z,1.80
2017-09-02T11:40:41.041Z,1.57
2017-09-02T11:43:08.518Z,2.10
2017-09-02T11:45:35.953Z,1.60
2017-09-02T11:48:03.398Z,2.30
2017-09-02T11:50:30.854Z,1.93
2017-09-02T11:52:58.309Z,2.03
2017-09-02T11:55:25.766Z,1.83
2017-09-02T11:57:53.225Z,2.10
2017-09-02T12:00:20.682Z,1.73
2017-09-02T12:02:48.134Z,1.60
2017-09-02T12:05:15.591Z,1.70
2017-09-02T12:07:43.040Z,1.40
2017-09-02T12:10:10.502Z,1.57
2017-09-02T12:12:37.959Z,1.60
2017-09-02T12:15:05.414Z,1.50
2017-09-02T12:17:32.860Z,1.60
2017-09-02T12:20:00.306Z,1.50
2017-09-02T12:22:27.771Z,1.47
2017-09-02T12:24:55.214Z,1.37
2017-09-02T12:27:23.442Z,1.60
2017-09-02T12:29:50.897Z,1.60
2017-09-02T12:32:18.355Z,1.77
2017-09-02T12:34:45.801Z,1.30
2017-09-02T12:37:13.258Z,1.20
2017-09-02T12:39:40.705Z,1.30
2017-09-02T12:42:08.159Z,1.53
2017-09-02T12:44:35.609Z,1.53
2017-09-02T12:47:03.066Z,1.30
2017-09-02T12:49:30.519Z,1.50
2017-09-02T12:51:57.968Z,1.57
2017-09-02T12:54:26.179Z,1.30
2017-09-02T12:56:53.638Z,1.20
2017-09-02T12:59:21.082Z,1.20
2017-09-02T13:01:48.522Z,1.33
2017-09-02T13:04:15.984Z,1.10
2017-09-02T13:06:43.424Z,1.17
2017-09-02T13:09:10.870Z,1.30
2017-09-02T13:11:38.317Z,1.20
2017-09-02T13:14:05.770Z,1.00
2017-09-02T13:16:33.216Z,1.03
2017-09-02T13:19:00.671Z,0.90
2017-09-02T13:21:28.130Z,1.10
2017-09-02T13:23:55.841Z,0.90
2017-09-02T13:26:23.278Z,1.23
2017-09-02T13:28:50.735Z,0.90
2017-09-02T13:31:18.194Z,1.07
2017-09-02T13:33:45.656Z,1.20
2017-09-02T13:36:13.094Z,1.20
2017-09-02T13:38:40.533Z,0.97
2017-09-02T13:41:07.997Z,1.13
2017-09-02T13:43:35.433Z,1.30
2017-09-02T13:46:02.893Z,1.23
2017-09-02T13:48:30.346Z,1.43
2017-09-02T13:50:57.810Z,1.30
2017-09-02T13:53:25.257Z,1.97
2017-09-02T13:55:52.722Z,1.87
2017-09-02T13:58:20.162Z,1.90
2017-09-02T14:00:47.617Z,2.13
2017-09-02T14:03:15.081Z,1.47
2017-09-02T14:05:42.557Z,1.37
2017-09-02T14:08:10.042Z,1.80
2017-09-02T14:10:37.485Z,1.60
2017-09-02T14:13:04.937Z,1.83
2017-09-02T14:15:32.375Z,1.87
2017-09-02T14:17:59.834Z,1.63
2017-09-02T14:20:27.286Z,1.73
2017-09-02T14:22:54.757Z,2.30
2017-09-02T14:25:22.213Z,2.20
2017-09-02T14:27:50.525Z,2.23
2017-09-02T14:30:17.983Z,2.70
2017-09-02T14:32:45.436Z,2.17
2017-09-02T14:35:12.893Z,1.90
2017-09-02T14:37:40.351Z,2.37
2017-09-02T14:40:07.808Z,3.63
2017-09-02T14:42:35.261Z,2.43
2017-09-02T14:45:02.718Z,2.43
2017-09-02T14:47:30.190Z,2.57
2017-09-02T14:49:57.634Z,2.80
2017-09-02T14:52:25.101Z,2.40
2017-09-02T14:54:52.581Z,2.40
2017-09-02T14:57:20.821Z,2.07
2017-09-02T14:59:48.278Z,2.23
2017-09-02T15:02:15.728Z,1.90
2017-09-02T15:04:43.177Z,2.33
2017-09-02T15:07:10.634Z,1.90
2017-09-02T15:09:38.085Z,2.20
2017-09-02T15:12:05.526Z,1.67
2017-09-02T15:14:32.983Z,1.80
2017-09-02T15:17:00.426Z,2.07
2017-09-02T15:19:27.878Z,1.83
2017-09-02T15:21:55.328Z,1.80
2017-09-02T15:24:22.777Z,1.50
2017-09-02T15:26:50.222Z,1.80
2017-09-02T15:29:17.688Z,1.90
2017-09-02T15:31:45.134Z,1.60
2017-09-02T15:34:12.582Z,1.60
2017-09-02T15:36:40.027Z,2.07
2017-09-02T15:39:07.479Z,1.70
2017-09-02T15:41:34.925Z,1.30
2017-09-02T15:44:02.397Z,1.50
2017-09-02T15:46:29.854Z,1.90
2017-09-02T15:48:57.313Z,1.60
2017-09-02T15:51:24.774Z,1.40
2017-09-02T15:53:52.246Z,1.43
2017-09-02T15:56:19.701Z,1.47
2017-09-02T15:58:47.165Z,1.50
2017-09-02T16:01:14.601Z,1.20
2017-09-02T16:03:42.723Z,1.50
2017-09-02T16:06:10.282Z,1.57
2017-09-02T16:08:37.741Z,1.33
2017-09-02T16:13:39.133Z,1.50
2017-09-02T16:16:06.590Z,1.63
2017-09-02T16:18:34.043Z,1.30
2017-09-02T16:21:01.500Z,1.43
2017-09-02T16:23:28.950Z,1.30
2017-09-02T16:25:56.422Z,1.40
2017-09-02T16:28:23.882Z,1.30
2017-09-02T16:30:51.325Z,1.30
2017-09-02T16:33:18.815Z,1.30
2017-09-02T16:35:46.266Z,1.40
2017-09-02T16:38:13.726Z,1.37
2017-09-02T16:40:41.185Z,1.30
2017-09-02T16:43:08.637Z,1.30
2017-09-02T16:45:36.095Z,1.53
2017-09-02T16:48:03.555Z,1.40
2017-09-02T16:50:30.997Z,1.37
2017-09-02T16:52:58.452Z,1.30
2017-09-02T16:55:25.911Z,1.60
2017-09-02T16:57:54.367Z,1.30
2017-09-02T17:00:21.823Z,1.40
2017-09-02T17:02:49.268Z,2.00
2017-09-02T17:05:16.713Z,1.40
2017-09-02T17:07:44.954Z,1.57
2017-09-02T17:10:12.402Z,1.47
2017-09-02T17:12:39.851Z,1.63
2017-09-02T17:15:07.306Z,1.43
2017-09-02T17:17:34.774Z,1.50
2017-09-02T17:20:02.247Z,1.80
2017-09-02T17:22:29.701Z,1.80
2017-09-02T17:25:01.097Z,1.20
2017-09-02T17:27:28.554Z,1.43
2017-09-02T17:29:56.027Z,1.73
2017-09-02T17:32:23.478Z,1.63
2017-09-02T17:34:50.925Z,1.53
2017-09-02T17:37:18.377Z,2.00
2017-09-02T17:39:46.610Z,1.93
2017-09-02T17:42:14.069Z,1.50
2017-09-02T17:44:41.547Z,1.53
2017-09-02T17:47:08.995Z,1.40
2017-09-02T17:49:36.438Z,2.10
2017-09-02T17:52:03.901Z,1.50
2017-09-02T17:54:31.365Z,1.70
2017-09-02T17:56:58.826Z,1.67
2017-09-02T17:59:26.274Z,1.67
2017-09-02T18:01:53.744Z,2.00
2017-09-02T18:04:21.198Z,1.87
2017-09-02T18:06:48.671Z,1.73
2017-09-02T18:09:16.117Z,1.43
2017-09-02T18:11:43.588Z,1.70
2017-09-02T18:14:11.073Z,1.50
2017-09-02T18:16:38.735Z,1.50
2017-09-02T18:19:06.212Z,1.80
2017-09-02T18:21:33.669Z,1.57
2017-09-02T18:24:01.129Z,1.63
2017-09-02T18:26:28.990Z,1.70
2017-09-02T18:28:56.459Z,1.30
2017-09-02T18:31:23.933Z,1.37
2017-09-02T18:33:51.410Z,1.50
2017-09-02T18:36:18.853Z,1.33
2017-09-02T18:38:46.328Z,1.40
2017-09-02T18:41:13.770Z,1.67
2017-09-02T18:43:41.217Z,1.70
2017-09-02T18:46:08.701Z,1.63
2017-09-02T18:48:36.149Z,1.90
2017-09-02T18:51:03.647Z,2.07
2017-09-02T18:53:31.112Z,1.27
2017-09-02T18:55:58.561Z,1.73
2017-09-02T18:58:26.020Z,1.60
2017-09-02T19:00:53.456Z,1.60
2017-09-02T19:03:20.957Z,1.67
2017-09-02T19:05:48.426Z,1.97
2017-09-02T19:08:15.913Z,1.63
2017-09-02T19:10:43.384Z,1.70
2017-09-02T19:13:11.638Z,1.30
2017-09-02T19:15:39.110Z,1.47
2017-09-02T19:18:06.554Z,1.80
2017-09-02T19:20:34.011Z,1.67
2017-09-02T19:23:01.489Z,1.97
2017-09-02T19:25:28.950Z,2.60
2017-09-02T19:27:57.186Z,2.37
2017-09-02T19:30:24.647Z,2.73
2017-09-02T19:32:52.106Z,2.53
2017-09-02T19:35:19.597Z,2.60
2017-09-02T19:37:47.045Z,2.70
2017-09-02T19:40:14.510Z,2.43
2017-09-02T19:42:41.962Z,3.10
2017-09-02T19:45:09.413Z,2.40
2017-09-02T19:47:36.871Z,3.00
2017-09-02T19:50:04.342Z,3.03
2017-09-02T19:52:32.562Z,3.00
2017-09-02T19:55:00.015Z,3.03
2017-09-02T19:57:27.481Z,3.30
2017-09-02T19:59:54.934Z,3.50
2017-09-02T20:02:22.430Z,4.83
2017-09-02T20:04:49.894Z,7.37
2017-09-02T20:07:17.371Z,12.30
2017-09-02T20:09:44.833Z,25.77
2017-09-02T20:12:12.301Z,39.97
2017-09-02T20:14:39.758Z,62.90
2017-09-02T20:17:07.225Z,83.43
2017-09-02T20:19:34.701Z,94.37
2017-09-02T20:22:02.162Z,94.60
2017-09-02T20:24:29.650Z,90.60
2017-09-02T20:26:57.121Z,84.83
2017-09-02T20:29:24.578Z,78.23
2017-09-02T20:31:52.093Z,70.33
2017-09-02T20:34:19.582Z,64.33
2017-09-02T20:36:47.055Z,55.87
2017-09-02T20:39:14.539Z,54.57
2017-09-02T20:41:42.005Z,47.43
2017-09-02T20:44:09.474Z,42.67
2017-09-02T20:46:36.934Z,41.30
2017-09-02T20:49:04.438Z,37.83
2017-09-02T20:51:31.889Z,36.13
2017-09-02T20:54:03.757Z,34.70
2017-09-02T20:56:31.209Z,29.80
2017-09-02T20:58:58.670Z,29.80
2017-09-02T21:01:26.129Z,28.80
2017-09-02T21:03:53.582Z,24.73
2017-09-02T21:06:21.042Z,23.97
2017-09-02T21:08:48.494Z,24.70
2017-09-02T21:11:15.954Z,21.93
2017-09-02T21:13:43.417Z,21.70
2017-09-02T21:16:10.923Z,21.90
2017-09-02T21:18:38.381Z,21.80
2017-09-02T21:21:05.854Z,19.20
2017-09-02T21:23:33.391Z,18.63
2017-09-02T21:26:00.888Z,18.30
2017-09-02T21:28:28.338Z,17.43
2017-09-02T21:30:55.806Z,15.10
2017-09-02T21:33:23.274Z,14.30
2017-09-02T21:35:51.543Z,14.40
2017-09-02T21:38:19.004Z,15.07
2017-09-02T21:40:46.458Z,14.90
2017-09-02T21:43:13.922Z,14.27
2017-09-02T21:45:41.381Z,14.00
2017-09-02T21:48:08.848Z,14.10
2017-09-02T21:50:36.338Z,13.20
2017-09-02T21:53:03.807Z,11.80
2017-09-02T21:55:31.273Z,12.87
2017-09-02T21:57:58.741Z,12.97
2017-09-02T22:00:26.211Z,13.03
2017-09-02T22:02:53.678Z,11.80
2017-09-02T22:05:21.148Z,12.83
2017-09-02T22:07:48.657Z,13.47
2017-09-02T22:10:16.110Z,14.33
2017-09-02T22:12:43.581Z,13.93
2017-09-02T22:15:11.050Z,13.50
2017-09-02T22:17:38.506Z,13.40
2017-09-02T22:20:05.966Z,12.40
2017-09-02T22:22:33.419Z,12.50
2017-09-02T22:25:00.888Z,11.80
2017-09-02T22:27:28.358Z,11.80
2017-09-02T22:29:55.821Z,10.70
2017-09-02T22:32:23.277Z,9.77
2017-09-02T22:34:50.733Z,9.60
2017-09-02T22:37:19.133Z,9.60
2017-09-02T22:39:46.589Z,8.70
2017-09-02T22:42:14.042Z,8.30
2017-09-02T22:44:41.522Z,8.57
2017-09-02T22:47:08.962Z,8.73
2017-09-02T22:49:36.410Z,8.60
2017-09-02T22:52:03.874Z,8.80
2017-09-02T22:54:31.326Z,9.03
2017-09-02T22:56:58.794Z,10.17
2017-09-02T22:59:26.233Z,9.67
2017-09-02T23:01:53.697Z,9.90
2017-09-02T23:04:21.150Z,10.63
2017-09-02T23:06:49.385Z,10.47
2017-09-02T23:09:16.839Z,10.73
2017-09-02T23:11:44.327Z,11.00
2017-09-02T23:14:11.774Z,11.33
2017-09-02T23:16:39.242Z,12.40
2017-09-02T23:19:06.690Z,13.07
2017-09-02T23:21:34.154Z,11.60
2017-09-02T23:24:01.601Z,12.50
2017-09-02T23:26:29.061Z,12.90
2017-09-02T23:28:56.526Z,14.23
2017-09-02T23:31:23.983Z,13.73
2017-09-02T23:33:51.435Z,14.33
2017-09-02T23:36:18.890Z,14.53
2017-09-02T23:38:46.338Z,14.37
2017-09-02T23:41:13.810Z,14.27
2017-09-02T23:43:41.283Z,14.77
2017-09-02T23:46:08.734Z,14.20
2017-09-02T23:48:36.194Z,13.80
2017-09-02T23:51:03.641Z,14.30
2017-09-02T23:53:31.098Z,14.13
2017-09-02T23:55:58.552Z,13.63
2017-09-02T23:58:26.011Z,15.10
